Mertens, TX (76666)

1:25 PM CDT on July 03, 2015 (GMT -0500)
Schulz Farms | | Change Station
CLOSE
Current Station
Personal Weather Station
Location: Malone, TX
Elevation: 535 ft
Nearby Weather Stations

Elev 535 ft 31.96 °N, 96.90 °W | Updated 37 minutes ago

Partly Cloudy
Partly Cloudy
90.7 °F
Feels Like 105 °F
N
9.4
Wind Variable Wind from SSW

Today
High -- | Low -- °F
--% Chance of Precip.
Yesterday
High -- | Low -- °F
Precip. -- in
6:25 AM 8:37 PM
Waning Gibbous, 96% visible
Pressure 29.99 in
Visibility 7.0 miles
Clouds Clear
Heat Index 105 °F
Dew Point 78 °F
Humidity 66%
Rainfall 0.00 in
Snow Depth Not available.
UV 12 out of 12
Pollen 4.50 out of 12
Air Quality Not available.
Flu Activity Not available.
METAR KINJ 031815Z AUTO 20009G15KT 7SM CLR 30/21 A2999 RMK AO2 T03020209

More Conditions Fewer Conditions

Pressure 29.99 in
Visibility 7.0 miles
Clouds Clear
Heat Index 105 °F
Dew Point 78 °F
Humidity 66%
Rainfall 0.00 in
Snow Depth Not available.
UV 12 out of 12
Pollen 4.50 out of 12
Air Quality Not available.
Flu Activity Not available.
METAR KINJ 031815Z AUTO 20009G15KT 7SM CLR 30/21 A2999 RMK AO2 T03020209

More Conditions Fewer Conditions

Nowcast | as of 1:14 PM CDT on July 3, 2015

An area of rain...scattered showers and some thunderstorms...along the Red River counties and down into the McKinney to Sulphur Springs areas...will continue throughout the afternoon as the activity moves east to southeast. Some activity around McKinney will develop westward into northern Parker County...and some will also spread into the dfw metroplex later this afternoon. Brief heavy rain...cloud to ground lightning...and gusty winds will be possible with the stronger thunderstorms. If thunder is heard or lightning seen...move indoors for safety. Otherwise...it will be warm and humid with temperatures in the mid 70s where it is raining...and in the mid 80s to lower 90s elsewhere. Afternoon heat indices will peak in the mid 90s to around 100 mid to late afternoon. Skies will be mostly cloudy with cloudy skies prevailing along the Red River and northeast counties.

×

10-Day Weather Forecast

×

Almanac

Astronomy

Jul. 03, 2015 Rise Set
Actual Time
Civil Twilight
Nautical Twilight
Astronomical Twilight
Moon
Length of Visible Light
Length of Day
Tomorrow will be .
, % of the Moon is Illuminated

Today's Extremes

State Highs State Lows

Community

WunderPhotos

Upload Photos

1,834,736 photos uploaded!

WunderBlogs® & News

Nearby

Air Quality

  Air Quality AQ Index Pollutant
Not available.

Snow Depth

Station Depth Elevation

Earthquake Activity

City Distance Mag. Time & Date
Minimum magnitude displayed is 2.5.

Coastal Water Temperatures

Place Temperature

Stations

Nearby Weather Stations

Station Location Temp. Windchill Dew Point Humidity Wind Precip. Elev Updated Type